createdAt,value
2018-11-03T00:00:43.985Z,7.88
2018-11-03T00:03:12.982Z,7.90
2018-11-03T00:05:42.179Z,7.91
2018-11-03T00:08:11.444Z,7.91
2018-11-03T00:10:40.280Z,7.95
2018-11-03T00:13:08.997Z,7.96
2018-11-03T00:15:38.205Z,7.97
2018-11-03T00:18:08.275Z,7.98
2018-11-03T00:20:37.710Z,8.00
2018-11-03T00:23:06.665Z,8.02
2018-11-03T00:25:35.586Z,8.01
2018-11-03T00:28:04.360Z,7.99
2018-11-03T00:30:33.539Z,7.97
2018-11-03T00:33:02.549Z,7.97
2018-11-03T00:35:32.852Z,7.97
2018-11-03T00:38:01.890Z,7.95
2018-11-03T00:40:30.892Z,7.93
2018-11-03T00:42:59.506Z,7.90
2018-11-03T00:45:28.469Z,7.90
2018-11-03T00:47:57.257Z,7.87
2018-11-03T00:50:26.222Z,7.86
2018-11-03T00:52:54.937Z,7.86
2018-11-03T00:55:23.585Z,7.87
2018-11-03T00:57:52.297Z,7.85
2018-11-03T01:00:21.144Z,7.80
2018-11-03T01:02:50.731Z,7.81
2018-11-03T01:05:19.596Z,7.79
2018-11-03T01:07:48.980Z,7.80
2018-11-03T01:10:18.125Z,7.80
2018-11-03T01:12:46.899Z,7.80
2018-11-03T01:15:16.672Z,7.82
2018-11-03T01:17:45.811Z,7.80
2018-11-03T01:20:15.900Z,7.79
2018-11-03T01:22:45.077Z,7.78
2018-11-03T01:25:14.007Z,7.81
2018-11-03T01:27:43.522Z,7.81
2018-11-03T01:30:14.749Z,7.82
2018-11-03T01:32:43.828Z,7.83
2018-11-03T01:35:13.192Z,7.82
2018-11-03T01:37:42.307Z,7.81
2018-11-03T01:40:12.723Z,7.74
2018-11-03T01:42:41.351Z,7.74
2018-11-03T01:45:10.156Z,7.73
2018-11-03T01:47:39.261Z,7.74
2018-11-03T01:50:09.660Z,7.74
2018-11-03T01:52:38.926Z,7.73
2018-11-03T01:55:08.239Z,7.72
2018-11-03T01:57:39.407Z,7.74
2018-11-03T02:00:08.991Z,7.69
2018-11-03T02:02:38.711Z,7.70
2018-11-03T02:05:08.788Z,7.66
2018-11-03T02:07:37.876Z,7.64
2018-11-03T02:10:08.101Z,7.64
2018-11-03T02:12:37.815Z,7.63
2018-11-03T02:15:06.823Z,7.64
2018-11-03T02:17:36.038Z,7.66
2018-11-03T02:20:06.263Z,7.66
2018-11-03T02:22:36.098Z,7.67
2018-11-03T02:25:05.338Z,7.67
2018-11-03T02:27:34.603Z,7.69
2018-11-03T02:30:04.083Z,7.69
2018-11-03T02:32:32.912Z,7.67
2018-11-03T02:35:02.370Z,7.69
2018-11-03T02:37:31.700Z,7.71
2018-11-03T02:40:00.706Z,7.75
2018-11-03T02:42:30.133Z,7.77
2018-11-03T02:44:58.900Z,7.77
2018-11-03T02:47:27.772Z,7.76
2018-11-03T02:49:56.616Z,7.77
2018-11-03T02:52:25.442Z,7.77
2018-11-03T02:54:54.945Z,7.77
2018-11-03T02:57:23.741Z,7.77
2018-11-03T02:59:52.480Z,7.80
2018-11-03T03:02:22.055Z,7.82
2018-11-03T03:04:50.984Z,7.84
2018-11-03T03:07:20.175Z,7.85
2018-11-03T03:09:49.376Z,7.83
2018-11-03T03:12:18.491Z,7.85
2018-11-03T03:14:47.106Z,7.86
2018-11-03T03:17:16.236Z,7.86
2018-11-03T03:19:44.820Z,7.86
2018-11-03T03:22:13.700Z,7.88
2018-11-03T03:24:42.818Z,7.87
2018-11-03T03:27:11.536Z,7.91
2018-11-03T03:29:40.413Z,7.91
2018-11-03T03:32:09.127Z,7.93
2018-11-03T03:34:37.802Z,7.94
2018-11-03T03:37:06.966Z,7.95
2018-11-03T03:39:36.213Z,7.94
2018-11-03T03:42:04.880Z,7.93
2018-11-03T03:44:33.630Z,7.92
2018-11-03T03:47:03.106Z,7.91
2018-11-03T03:49:32.053Z,7.91
2018-11-03T03:52:01.384Z,7.90
2018-11-03T03:54:30.971Z,7.89
2018-11-03T03:56:59.892Z,7.86
2018-11-03T03:59:28.686Z,7.86
2018-11-03T04:01:57.405Z,7.85
2018-11-03T04:04:26.535Z,7.86
2018-11-03T04:06:56.929Z,7.85
2018-11-03T04:09:26.999Z,7.84
2018-11-03T04:11:56.116Z,7.82
2018-11-03T04:14:26.290Z,7.81
2018-11-03T04:16:55.172Z,7.80
2018-11-03T04:19:23.793Z,7.80
2018-11-03T04:21:53.966Z,7.81
2018-11-03T04:24:22.912Z,7.81
2018-11-03T04:26:51.640Z,7.80
2018-11-03T04:29:20.348Z,7.79
2018-11-03T04:31:49.824Z,7.80
2018-11-03T04:34:18.479Z,7.79
2018-11-03T04:36:47.308Z,7.79
2018-11-03T04:39:16.213Z,7.79
2018-11-03T04:41:44.974Z,7.78
2018-11-03T04:44:13.728Z,7.78
2018-11-03T04:46:43.319Z,7.78
2018-11-03T04:49:12.362Z,7.77
2018-11-03T04:51:41.027Z,7.80
2018-11-03T04:54:10.302Z,7.78
2018-11-03T04:56:39.342Z,7.78
2018-11-03T04:59:09.064Z,7.75
2018-11-03T05:01:38.677Z,7.73
2018-11-03T05:04:07.886Z,7.70
2018-11-03T05:06:37.348Z,7.73
2018-11-03T05:09:08.326Z,7.67
2018-11-03T05:11:37.097Z,7.67
2018-11-03T05:14:07.289Z,7.66
2018-11-03T05:16:37.253Z,7.67
2018-11-03T05:19:06.477Z,7.65
2018-11-03T05:21:35.258Z,7.64
2018-11-03T05:24:04.110Z,7.65
2018-11-03T05:26:32.769Z,7.62
2018-11-03T05:29:01.423Z,7.62
2018-11-03T05:31:30.327Z,7.61
2018-11-03T05:33:59.348Z,7.60
2018-11-03T05:36:28.914Z,7.56
2018-11-03T05:38:57.625Z,7.53
2018-11-03T05:41:26.233Z,7.53
2018-11-03T05:43:55.383Z,7.54
2018-11-03T05:46:24.732Z,7.52
2018-11-03T05:48:54.764Z,7.53
2018-11-03T05:51:24.089Z,7.52
2018-11-03T05:53:53.307Z,7.56
2018-11-03T05:56:22.444Z,7.55
2018-11-03T05:58:51.872Z,7.54
2018-11-03T06:01:21.181Z,7.56
2018-11-03T06:03:49.799Z,7.56
2018-11-03T06:06:19.364Z,7.58
2018-11-03T06:08:48.145Z,7.60
2018-11-03T06:11:16.963Z,7.58
2018-11-03T06:13:45.687Z,7.61
2018-11-03T06:16:15.393Z,7.59
2018-11-03T06:18:44.538Z,7.60
2018-11-03T06:21:14.002Z,7.60
2018-11-03T06:23:43.971Z,7.63
2018-11-03T06:26:12.780Z,7.63
2018-11-03T06:28:42.388Z,7.67
2018-11-03T06:31:11.622Z,7.69
2018-11-03T06:33:40.408Z,7.67
2018-11-03T06:36:09.254Z,7.71
2018-11-03T06:38:38.131Z,7.74
2018-11-03T06:41:07.224Z,7.76
2018-11-03T06:43:35.920Z,7.78
2018-11-03T06:46:05.395Z,7.79
2018-11-03T06:48:35.099Z,7.81
2018-11-03T06:51:04.408Z,7.81
2018-11-03T06:53:33.611Z,7.84
2018-11-03T06:56:02.482Z,7.87
2018-11-03T06:58:31.227Z,7.89
2018-11-03T07:01:00.530Z,7.90
2018-11-03T07:03:29.553Z,7.94
2018-11-03T07:05:58.389Z,7.93
2018-11-03T07:08:27.860Z,8.01
2018-11-03T07:10:56.941Z,8.06
2018-11-03T07:13:26.664Z,8.09
2018-11-03T07:15:55.530Z,8.13
2018-11-03T07:18:27.087Z,8.18
2018-11-03T07:20:56.832Z,8.22
2018-11-03T07:23:25.603Z,8.25
2018-11-03T07:25:54.390Z,8.30
2018-11-03T07:28:23.720Z,8.30
2018-11-03T07:30:52.322Z,8.38
2018-11-03T07:33:21.389Z,8.45
2018-11-03T07:35:50.359Z,8.49
2018-11-03T07:38:19.578Z,8.56
2018-11-03T07:40:48.975Z,8.62
2018-11-03T07:43:17.989Z,8.66
2018-11-03T07:45:46.913Z,8.70
2018-11-03T07:48:16.231Z,8.71
2018-11-03T07:50:45.030Z,8.80
2018-11-03T07:53:13.891Z,8.89
2018-11-03T07:55:43.078Z,8.99
2018-11-03T07:58:12.437Z,9.10
2018-11-03T08:00:41.945Z,9.17
2018-11-03T08:03:10.902Z,9.21
2018-11-03T08:05:40.148Z,9.23
2018-11-03T08:08:10.291Z,9.28
2018-11-03T08:10:39.193Z,9.34
2018-11-03T08:13:09.804Z,9.38
2018-11-03T08:15:38.731Z,9.46
2018-11-03T08:18:07.453Z,9.49
2018-11-03T08:20:36.354Z,9.52
2018-11-03T08:23:05.848Z,9.59
2018-11-03T08:25:35.093Z,9.76
2018-11-03T08:28:04.665Z,9.81
2018-11-03T08:30:33.334Z,9.80
2018-11-03T08:33:02.599Z,9.82
2018-11-03T08:35:31.567Z,9.89
2018-11-03T08:38:00.574Z,10.07
2018-11-03T08:40:29.454Z,10.30
2018-11-03T08:42:58.329Z,10.42
2018-11-03T08:45:27.672Z,10.41
2018-11-03T08:47:56.264Z,10.39
2018-11-03T08:50:26.348Z,10.48
2018-11-03T08:52:55.497Z,10.44
2018-11-03T08:55:24.472Z,10.46
2018-11-03T08:57:53.385Z,10.42
2018-11-03T09:00:22.962Z,10.40
2018-11-03T09:02:51.801Z,10.28
2018-11-03T09:05:21.423Z,10.32
2018-11-03T09:07:50.570Z,10.26
2018-11-03T09:10:19.656Z,10.32
2018-11-03T09:12:48.444Z,10.22
2018-11-03T09:15:17.503Z,10.16
2018-11-03T09:17:46.709Z,10.17
2018-11-03T09:20:15.855Z,10.11
2018-11-03T09:22:44.796Z,10.11
2018-11-03T09:25:14.774Z,10.14
2018-11-03T09:27:45.070Z,10.17
2018-11-03T09:30:17.728Z,10.29
2018-11-03T09:32:46.990Z,10.44
2018-11-03T09:35:17.041Z,10.45
2018-11-03T09:37:46.520Z,10.52
2018-11-03T09:40:16.738Z,10.57
2018-11-03T09:42:46.647Z,10.57
2018-11-03T09:45:16.743Z,10.56
2018-11-03T09:47:46.404Z,10.54
2018-11-03T09:50:16.248Z,10.58
2018-11-03T09:52:45.825Z,10.62
2018-11-03T09:55:16.764Z,10.70
2018-11-03T09:57:46.372Z,10.62
2018-11-03T10:00:17.199Z,10.72
2018-11-03T10:02:46.370Z,10.69
2018-11-03T10:05:16.358Z,10.69
2018-11-03T10:07:45.793Z,10.71
2018-11-03T10:10:16.144Z,10.72
2018-11-03T10:12:45.373Z,10.80
2018-11-03T10:15:15.710Z,10.84
2018-11-03T10:17:45.691Z,10.90
2018-11-03T10:20:14.920Z,11.03
2018-11-03T10:22:44.271Z,11.19
2018-11-03T10:25:18.386Z,11.35
2018-11-03T10:27:48.200Z,11.33
2018-11-03T10:30:18.481Z,11.52
2018-11-03T10:32:47.994Z,11.70
2018-11-03T10:35:17.465Z,11.91
2018-11-03T10:37:46.821Z,12.21
2018-11-03T10:40:17.819Z,12.30
2018-11-03T10:42:47.578Z,12.27
2018-11-03T10:45:17.621Z,12.18
2018-11-03T10:47:47.017Z,12.24
2018-11-03T10:50:18.234Z,12.13
2018-11-03T10:52:48.480Z,12.13
2018-11-03T10:55:19.014Z,12.14
2018-11-03T10:57:47.976Z,12.14
2018-11-03T11:00:24.160Z,12.11
2018-11-03T11:02:58.759Z,12.41
2018-11-03T11:05:33.447Z,12.44
2018-11-03T11:08:08.550Z,12.58
2018-11-03T11:10:42.966Z,13.00
2018-11-03T11:13:17.054Z,13.32
2018-11-03T11:15:49.045Z,13.53
2018-11-03T11:18:18.513Z,13.35
2018-11-03T11:20:47.802Z,13.61
2018-11-03T11:23:17.108Z,13.81
2018-11-03T11:25:46.434Z,14.30
2018-11-03T11:28:15.456Z,14.22
2018-11-03T11:30:46.136Z,14.49
2018-11-03T11:33:16.627Z,14.42
2018-11-03T11:35:46.004Z,14.47
2018-11-03T11:38:15.824Z,14.38
2018-11-03T11:40:45.600Z,14.07
2018-11-03T11:43:15.228Z,14.44
2018-11-03T11:45:45.091Z,14.68
2018-11-03T11:48:14.298Z,14.27
2018-11-03T11:50:43.572Z,14.33
2018-11-03T11:53:12.765Z,14.53
2018-11-03T11:55:41.840Z,14.61
2018-11-03T11:58:11.116Z,14.59
2018-11-03T12:00:40.438Z,14.84
2018-11-03T12:03:10.279Z,15.34
2018-11-03T12:05:40.630Z,15.53
2018-11-03T12:08:10.054Z,15.77
2018-11-03T12:10:39.266Z,15.93
2018-11-03T12:13:09.333Z,16.27
2018-11-03T12:15:38.608Z,16.77
2018-11-03T12:18:07.714Z,16.96
2018-11-03T12:20:37.241Z,16.91
2018-11-03T12:23:06.240Z,17.33
2018-11-03T12:25:35.033Z,17.17
2018-11-03T12:28:03.689Z,17.17
2018-11-03T12:30:32.791Z,16.97
2018-11-03T12:33:01.985Z,16.53
2018-11-03T12:35:31.231Z,16.31
2018-11-03T12:38:00.185Z,15.58
2018-11-03T12:40:30.200Z,15.29
2018-11-03T12:42:59.896Z,15.29
2018-11-03T12:45:29.349Z,15.08
2018-11-03T12:47:58.594Z,15.35
2018-11-03T12:50:27.665Z,15.43
2018-11-03T12:52:56.674Z,15.43
2018-11-03T12:55:26.044Z,15.86
2018-11-03T12:57:55.209Z,16.62
2018-11-03T13:00:24.502Z,16.73
2018-11-03T13:02:53.698Z,16.61
2018-11-03T13:05:22.779Z,16.70
2018-11-03T13:07:52.661Z,16.59
2018-11-03T13:10:21.396Z,16.44
2018-11-03T13:12:50.551Z,16.29
2018-11-03T13:15:19.666Z,16.52
2018-11-03T13:17:48.951Z,16.47
2018-11-03T13:20:18.560Z,16.34
2018-11-03T13:22:48.796Z,16.33
2018-11-03T13:25:17.880Z,16.20
2018-11-03T13:27:47.046Z,16.37
2018-11-03T13:30:16.298Z,16.43
2018-11-03T13:32:45.471Z,16.48
2018-11-03T13:35:15.575Z,16.80
2018-11-03T13:37:44.860Z,16.95
2018-11-03T13:40:14.855Z,17.09
2018-11-03T13:42:44.799Z,16.92
2018-11-03T13:45:14.222Z,16.53
2018-11-03T13:47:43.391Z,16.22
2018-11-03T13:50:14.941Z,16.10
2018-11-03T13:52:52.904Z,16.01
2018-11-03T13:55:22.630Z,15.94
2018-11-03T13:57:52.291Z,15.59
2018-11-03T14:00:21.723Z,15.50
2018-11-03T14:02:51.661Z,15.22
2018-11-03T14:05:21.225Z,15.15
2018-11-03T14:07:50.552Z,14.83
2018-11-03T14:10:20.389Z,14.64
2018-11-03T14:12:49.679Z,14.49
2018-11-03T14:15:20.026Z,14.46
2018-11-03T14:17:49.176Z,14.31
2018-11-03T14:20:22.180Z,14.26
2018-11-03T14:22:52.259Z,14.13
2018-11-03T14:25:21.446Z,14.06
2018-11-03T14:27:50.780Z,13.98
2018-11-03T14:30:20.611Z,13.85
2018-11-03T14:32:50.150Z,13.72
2018-11-03T14:35:19.682Z,13.77
2018-11-03T14:37:49.070Z,13.70
2018-11-03T14:40:18.816Z,13.62
2018-11-03T14:42:48.266Z,13.59
2018-11-03T14:45:17.746Z,13.47
2018-11-03T14:47:47.227Z,13.44
2018-11-03T14:50:16.541Z,13.38
2018-11-03T14:52:45.394Z,13.29
2018-11-03T14:55:14.292Z,13.24
2018-11-03T14:57:43.255Z,13.16
2018-11-03T15:00:15.122Z,13.19
2018-11-03T15:02:43.877Z,13.04
2018-11-03T15:05:13.507Z,13.00
2018-11-03T15:07:42.346Z,12.95
2018-11-03T15:10:12.216Z,12.93
2018-11-03T15:12:41.785Z,12.88
2018-11-03T15:15:12.831Z,12.82
2018-11-03T15:17:42.490Z,12.76
2018-11-03T15:20:11.990Z,12.67
2018-11-03T15:22:41.712Z,12.64
2018-11-03T15:25:10.944Z,12.56
2018-11-03T15:27:40.006Z,12.51
2018-11-03T15:30:10.485Z,12.52
2018-11-03T15:32:41.274Z,12.43
2018-11-03T15:35:12.888Z,12.41
2018-11-03T15:37:41.638Z,12.40
2018-11-03T15:40:12.756Z,12.41
2018-11-03T15:42:42.484Z,12.38
2018-11-03T15:45:14.262Z,12.33
2018-11-03T15:47:43.819Z,12.31
2018-11-03T15:50:13.620Z,12.27
2018-11-03T15:52:43.612Z,12.19
2018-11-03T15:55:12.825Z,12.14
2018-11-03T15:57:42.389Z,12.06
2018-11-03T16:00:14.388Z,12.06
2018-11-03T16:02:43.377Z,12.03
2018-11-03T16:05:13.533Z,12.03
2018-11-03T16:07:43.150Z,11.99
2018-11-03T16:10:13.120Z,11.94
2018-11-03T16:12:43.722Z,11.96
2018-11-03T16:15:13.500Z,11.93
2018-11-03T16:17:43.026Z,11.87
2018-11-03T16:20:12.988Z,11.84
2018-11-03T16:22:42.405Z,11.83
2018-11-03T16:25:11.370Z,11.80
2018-11-03T16:27:40.842Z,11.81
2018-11-03T16:30:11.907Z,11.75
2018-11-03T16:32:40.840Z,11.70
2018-11-03T16:35:10.190Z,11.68
2018-11-03T16:37:40.705Z,11.62
2018-11-03T16:40:11.450Z,11.62
2018-11-03T16:42:40.981Z,11.59
2018-11-03T16:45:11.594Z,11.58
2018-11-03T16:47:41.160Z,11.56
2018-11-03T16:50:11.669Z,11.50
2018-11-03T16:52:40.797Z,11.43
2018-11-03T16:55:10.810Z,11.45
2018-11-03T16:57:40.246Z,11.42
2018-11-03T17:00:11.733Z,11.41
2018-11-03T17:02:40.921Z,11.41
2018-11-03T17:05:11.092Z,11.39
2018-11-03T17:07:40.067Z,11.35
2018-11-03T17:10:12.104Z,11.33
2018-11-03T17:12:43.264Z,11.32
2018-11-03T17:15:13.265Z,11.30
2018-11-03T17:17:42.662Z,11.27
2018-11-03T17:20:12.736Z,11.23
2018-11-03T17:22:41.950Z,11.21
2018-11-03T17:25:11.848Z,11.18
2018-11-03T17:27:40.655Z,11.21
2018-11-03T17:30:12.176Z,11.20
2018-11-03T17:32:41.295Z,11.19
2018-11-03T17:35:10.377Z,11.17
2018-11-03T17:37:39.457Z,11.14
2018-11-03T17:40:09.463Z,11.14
2018-11-03T17:42:38.652Z,11.07
2018-11-03T17:45:09.446Z,11.10
2018-11-03T17:47:39.136Z,11.09
2018-11-03T17:50:09.361Z,11.07
2018-11-03T17:52:38.350Z,11.08
2018-11-03T17:55:07.836Z,11.06
2018-11-03T17:57:36.917Z,11.02
2018-11-03T18:00:14.911Z,11.05
2018-11-03T18:02:45.296Z,11.00
2018-11-03T18:05:15.281Z,10.95
2018-11-03T18:07:44.447Z,10.96
2018-11-03T18:10:13.831Z,10.98
2018-11-03T18:12:43.591Z,10.97
2018-11-03T18:15:13.192Z,11.00
2018-11-03T18:17:42.533Z,10.98
2018-11-03T18:20:12.199Z,10.98
2018-11-03T18:22:41.665Z,10.96
2018-11-03T18:25:11.085Z,10.93
2018-11-03T18:27:39.847Z,10.93
2018-11-03T18:30:10.348Z,10.91
2018-11-03T18:32:39.698Z,10.91
2018-11-03T18:35:09.095Z,10.92
2018-11-03T18:37:38.329Z,10.92
2018-11-03T18:40:08.195Z,10.90
2018-11-03T18:42:37.860Z,10.87
2018-11-03T18:45:07.050Z,10.86
2018-11-03T18:47:37.045Z,10.87
2018-11-03T18:50:08.713Z,10.90
2018-11-03T18:52:39.392Z,10.87
2018-11-03T18:55:08.772Z,10.87
2018-11-03T18:57:37.727Z,10.81
2018-11-03T19:00:08.068Z,10.79
2018-11-03T19:02:37.254Z,10.76
2018-11-03T19:05:06.581Z,10.77
2018-11-03T19:07:36.228Z,10.76
2018-11-03T19:10:05.796Z,10.77
2018-11-03T19:12:35.601Z,10.77
2018-11-03T19:15:06.113Z,10.79
2018-11-03T19:17:35.121Z,10.74
2018-11-03T19:20:04.134Z,10.72
2018-11-03T19:22:33.117Z,10.73
2018-11-03T19:25:02.182Z,10.73
2018-11-03T19:27:31.423Z,10.72
2018-11-03T19:30:00.615Z,10.66
2018-11-03T19:32:29.957Z,10.61
2018-11-03T19:34:59.103Z,10.56
2018-11-03T19:37:28.263Z,10.58
2018-11-03T19:39:58.450Z,10.52
2018-11-03T19:42:27.593Z,10.51
2018-11-03T19:44:57.651Z,10.53
2018-11-03T19:47:27.007Z,10.55
2018-11-03T19:49:55.967Z,10.53
2018-11-03T19:52:24.841Z,10.57
2018-11-03T19:54:53.894Z,10.57
2018-11-03T19:57:23.171Z,10.54
2018-11-03T19:59:52.314Z,10.52
2018-11-03T20:02:21.759Z,10.55
2018-11-03T20:04:50.642Z,10.49
2018-11-03T20:07:19.883Z,10.46
2018-11-03T20:09:49.127Z,10.46
2018-11-03T20:12:18.469Z,10.42
2018-11-03T20:14:47.722Z,10.43
2018-11-03T20:17:16.564Z,10.42
2018-11-03T20:19:45.974Z,10.43
2018-11-03T20:22:14.877Z,10.41
2018-11-03T20:24:44.519Z,10.38
2018-11-03T20:27:13.777Z,10.36
2018-11-03T20:29:42.909Z,10.38
2018-11-03T20:32:12.198Z,10.36
2018-11-03T20:34:41.360Z,10.40
2018-11-03T20:37:10.598Z,10.37
2018-11-03T20:39:39.459Z,10.30
2018-11-03T20:42:09.004Z,10.20
2018-11-03T20:44:38.142Z,10.19
2018-11-03T20:47:07.384Z,10.21
2018-11-03T20:49:37.000Z,10.24
2018-11-03T20:52:07.116Z,10.29
2018-11-03T20:54:36.267Z,10.30
2018-11-03T20:57:05.363Z,10.30
2018-11-03T20:59:34.691Z,10.30
2018-11-03T21:02:03.909Z,10.24
2018-11-03T21:04:34.095Z,10.22
2018-11-03T21:07:03.198Z,10.24
2018-11-03T21:09:32.567Z,10.22
2018-11-03T21:12:02.212Z,10.21
2018-11-03T21:14:31.813Z,10.20
2018-11-03T21:17:01.298Z,10.17
2018-11-03T21:19:30.476Z,10.20
2018-11-03T21:21:59.992Z,10.19
2018-11-03T21:24:28.939Z,10.20
2018-11-03T21:26:57.953Z,10.22
2018-11-03T21:29:27.092Z,10.18
2018-11-03T21:31:56.059Z,10.11
2018-11-03T21:34:24.897Z,10.09
2018-11-03T21:36:53.858Z,10.09
2018-11-03T21:39:23.073Z,10.12
2018-11-03T21:41:52.275Z,10.14
2018-11-03T21:44:21.476Z,10.14
2018-11-03T21:46:50.810Z,10.13
2018-11-03T21:49:20.018Z,10.13
2018-11-03T21:51:49.059Z,10.06
2018-11-03T21:54:18.477Z,10.08
2018-11-03T21:56:47.523Z,10.09
2018-11-03T21:59:16.472Z,10.09
2018-11-03T22:01:46.133Z,10.09
2018-11-03T22:04:15.972Z,10.12
2018-11-03T22:06:45.524Z,10.13
2018-11-03T22:09:14.321Z,10.11
2018-11-03T22:11:44.018Z,10.09
2018-11-03T22:14:13.148Z,10.11
2018-11-03T22:16:42.392Z,10.10
2018-11-03T22:19:11.517Z,10.05
2018-11-03T22:21:40.931Z,10.03
2018-11-03T22:24:09.973Z,10.05
2018-11-03T22:26:39.327Z,10.05
2018-11-03T22:29:08.370Z,10.04
2018-11-03T22:31:37.901Z,9.95
2018-11-03T22:34:07.954Z,9.91
2018-11-03T22:36:37.297Z,9.91
2018-11-03T22:39:08.506Z,9.93
2018-11-03T22:41:37.764Z,9.99
2018-11-03T22:44:06.716Z,9.98
2018-11-03T22:46:35.875Z,10.00
2018-11-03T22:49:05.437Z,10.01
2018-11-03T22:51:34.528Z,10.03
2018-11-03T22:54:03.715Z,10.03
2018-11-03T22:56:32.465Z,10.02
2018-11-03T22:59:01.272Z,9.99
2018-11-03T23:01:32.163Z,9.94
2018-11-03T23:04:01.359Z,9.98
2018-11-03T23:06:31.354Z,9.98
2018-11-03T23:09:01.043Z,9.97
2018-11-03T23:11:30.717Z,9.91
2018-11-03T23:13:59.503Z,9.89
2018-11-03T23:16:28.491Z,9.90
2018-11-03T23:18:57.808Z,9.90
2018-11-03T23:21:27.059Z,9.89
2018-11-03T23:23:56.744Z,9.91
2018-11-03T23:26:25.611Z,9.92
2018-11-03T23:28:54.673Z,9.93
2018-11-03T23:31:24.931Z,9.92
2018-11-03T23:33:53.705Z,9.94
2018-11-03T23:36:22.488Z,9.92
2018-11-03T23:38:51.534Z,9.86
2018-11-03T23:41:20.402Z,9.89
2018-11-03T23:43:49.034Z,9.92
2018-11-03T23:46:18.268Z,9.86
2018-11-03T23:48:47.447Z,9.90
2018-11-03T23:51:16.364Z,9.90
2018-11-03T23:53:44.992Z,9.87
2018-11-03T23:56:13.799Z,9.83
2018-11-03T23:58:44.470Z,9.85
